sensor_id;sensor_type;location;lat;lon;timestamp;pressure;altitude;pressure_sealevel;temperature;humidity
47761;BME280;33524;55.434;38.520;2023-12-22T00:00:20;98129.97;;;-0.69;100.00
47761;BME280;33524;55.434;38.520;2023-12-22T00:02:48;98117.53;;;-0.77;100.00
47761;BME280;33524;55.434;38.520;2023-12-22T00:05:20;98124.16;;;-0.73;100.00
47761;BME280;33524;55.434;38.520;2023-12-22T00:07:48;98118.09;;;-0.72;100.00
47761;BME280;33524;55.434;38.520;2023-12-22T00:10:17;98128.25;;;-0.97;100.00
47761;BME280;33524;55.434;38.520;2023-12-22T00:12:45;98133.00;;;-0.77;100.00
47761;BME280;33524;55.434;38.520;2023-12-22T00:15:13;98127.69;;;-0.47;100.00
47761;BME280;33524;55.434;38.520;2023-12-22T00:17:41;98121.75;;;-0.62;100.00
47761;BME280;33524;55.434;38.520;2023-12-22T00:20:09;98120.75;;;-0.73;100.00
47761;BME280;33524;55.434;38.520;2023-12-22T00:22:41;98091.19;;;-0.82;100.00
47761;BME280;33524;55.434;38.520;2023-12-22T00:25:10;98114.47;;;-0.69;100.00
47761;BME280;33524;55.434;38.520;2023-12-22T00:27:38;98110.03;;;-0.94;100.00
47761;BME280;33524;55.434;38.520;2023-12-22T00:30:07;98118.00;;;-0.70;100.00
47761;BME280;33524;55.434;38.520;2023-12-22T00:32:35;98124.00;;;-0.84;100.00
47761;BME280;33524;55.434;38.520;2023-12-22T00:35:03;98115.78;;;-0.76;100.00
47761;BME280;33524;55.434;38.520;2023-12-22T00:37:32;98120.28;;;-0.66;100.00
47761;BME280;33524;55.434;38.520;2023-12-22T00:40:01;98122.19;;;-0.96;100.00
47761;BME280;33524;55.434;38.520;2023-12-22T00:42:31;98132.13;;;-0.90;100.00
47761;BME280;33524;55.434;38.520;2023-12-22T00:45:00;98126.50;;;-0.83;100.00
47761;BME280;33524;55.434;38.520;2023-12-22T00:47:29;98118.81;;;-0.70;100.00
47761;BME280;33524;55.434;38.520;2023-12-22T00:50:00;98110.81;;;-0.79;100.00
47761;BME280;33524;55.434;38.520;2023-12-22T00:52:29;98117.91;;;-0.83;100.00
47761;BME280;33524;55.434;38.520;2023-12-22T00:54:57;98124.09;;;-0.86;100.00
47761;BME280;33524;55.434;38.520;2023-12-22T00:57:25;98123.53;;;-0.76;100.00
47761;BME280;33524;55.434;38.520;2023-12-22T00:59:53;98121.47;;;-0.71;100.00
47761;BME280;33524;55.434;38.520;2023-12-22T01:02:21;98113.44;;;-0.67;100.00
47761;BME280;33524;55.434;38.520;2023-12-22T01:04:49;98108.16;;;-0.78;100.00
47761;BME280;33524;55.434;38.520;2023-12-22T01:07:18;98112.00;;;-0.85;100.00
47761;BME280;33524;55.434;38.520;2023-12-22T01:09:46;98111.63;;;-0.79;100.00
47761;BME280;33524;55.434;38.520;2023-12-22T01:12:14;98110.00;;;-0.80;100.00
47761;BME280;33524;55.434;38.520;2023-12-22T01:14:43;98106.38;;;-0.77;100.00
47761;BME280;33524;55.434;38.520;2023-12-22T01:17:12;98114.06;;;-0.90;100.00
47761;BME280;33524;55.434;38.520;2023-12-22T01:19:40;98107.34;;;-0.93;100.00
47761;BME280;33524;55.434;38.520;2023-12-22T01:22:09;98104.03;;;-0.95;100.00
47761;BME280;33524;55.434;38.520;2023-12-22T01:24:37;98107.62;;;-0.97;100.00
47761;BME280;33524;55.434;38.520;2023-12-22T01:27:12;98106.50;;;-0.93;100.00
47761;BME280;33524;55.434;38.520;2023-12-22T01:29:40;98104.84;;;-0.94;100.00
47761;BME280;33524;55.434;38.520;2023-12-22T01:32:08;98096.69;;;-1.01;100.00
47761;BME280;33524;55.434;38.520;2023-12-22T01:34:36;98093.41;;;-0.90;100.00
47761;BME280;33524;55.434;38.520;2023-12-22T01:37:04;98112.34;;;-1.04;100.00
47761;BME280;33524;55.434;38.520;2023-12-22T01:39:32;98108.34;;;-0.95;100.00
47761;BME280;33524;55.434;38.520;2023-12-22T01:42:01;98114.81;;;-1.03;100.00
47761;BME280;33524;55.434;38.520;2023-12-22T01:44:29;98113.16;;;-1.18;100.00
47761;BME280;33524;55.434;38.520;2023-12-22T01:46:57;98120.34;;;-1.09;100.00
47761;BME280;33524;55.434;38.520;2023-12-22T01:49:26;98123.75;;;-1.08;100.00
47761;BME280;33524;55.434;38.520;2023-12-22T01:51:57;98107.19;;;-1.18;100.00
47761;BME280;33524;55.434;38.520;2023-12-22T01:54:26;98119.78;;;-1.14;100.00
47761;BME280;33524;55.434;38.520;2023-12-22T01:56:54;98115.00;;;-1.20;100.00
47761;BME280;33524;55.434;38.520;2023-12-22T01:59:23;98114.94;;;-1.18;100.00
47761;BME280;33524;55.434;38.520;2023-12-22T02:01:53;98119.19;;;-1.32;100.00
47761;BME280;33524;55.434;38.520;2023-12-22T02:04:22;98112.56;;;-1.36;100.00
47761;BME280;33524;55.434;38.520;2023-12-22T02:06:51;98107.66;;;-1.26;100.00
47761;BME280;33524;55.434;38.520;2023-12-22T02:09:19;98110.72;;;-1.48;100.00
47761;BME280;33524;55.434;38.520;2023-12-22T02:11:48;98103.78;;;-1.33;100.00
47761;BME280;33524;55.434;38.520;2023-12-22T02:14:16;98101.41;;;-1.51;100.00
47761;BME280;33524;55.434;38.520;2023-12-22T02:17:14;98113.47;;;-1.37;100.00
47761;BME280;33524;55.434;38.520;2023-12-22T02:19:46;98097.16;;;-1.52;100.00
47761;BME280;33524;55.434;38.520;2023-12-22T02:22:14;98093.94;;;-1.55;100.00
47761;BME280;33524;55.434;38.520;2023-12-22T02:24:42;98099.00;;;-1.39;100.00
47761;BME280;33524;55.434;38.520;2023-12-22T02:27:28;98103.06;;;-1.21;100.00
47761;BME280;33524;55.434;38.520;2023-12-22T02:32:36;98094.22;;;-1.31;100.00
47761;BME280;33524;55.434;38.520;2023-12-22T02:35:08;98072.69;;;-1.45;100.00
47761;BME280;33524;55.434;38.520;2023-12-22T02:37:39;98098.91;;;-1.38;100.00
47761;BME280;33524;55.434;38.520;2023-12-22T02:40:09;98105.63;;;-1.35;100.00
47761;BME280;33524;55.434;38.520;2023-12-22T02:42:38;98101.22;;;-1.48;100.00
47761;BME280;33524;55.434;38.520;2023-12-22T02:45:14;98105.19;;;-1.42;100.00
47761;BME280;33524;55.434;38.520;2023-12-22T02:47:43;98095.31;;;-1.50;100.00
47761;BME280;33524;55.434;38.520;2023-12-22T02:50:13;98105.28;;;-1.44;100.00
47761;BME280;33524;55.434;38.520;2023-12-22T02:52:42;98094.06;;;-1.43;100.00
47761;BME280;33524;55.434;38.520;2023-12-22T02:55:10;98087.06;;;-1.40;100.00
47761;BME280;33524;55.434;38.520;2023-12-22T02:57:38;98089.81;;;-1.58;100.00
47761;BME280;33524;55.434;38.520;2023-12-22T03:00:08;98096.63;;;-1.57;100.00
47761;BME280;33524;55.434;38.520;2023-12-22T03:02:36;98093.53;;;-1.78;100.00
47761;BME280;33524;55.434;38.520;2023-12-22T03:05:04;98071.75;;;-1.72;100.00
47761;BME280;33524;55.434;38.520;2023-12-22T03:07:33;98083.53;;;-1.54;100.00
47761;BME280;33524;55.434;38.520;2023-12-22T03:10:01;98083.00;;;-1.59;100.00
47761;BME280;33524;55.434;38.520;2023-12-22T03:12:30;98088.59;;;-1.67;100.00
47761;BME280;33524;55.434;38.520;2023-12-22T03:14:58;98089.88;;;-1.74;100.00
47761;BME280;33524;55.434;38.520;2023-12-22T03:17:26;98082.88;;;-2.00;100.00
47761;BME280;33524;55.434;38.520;2023-12-22T03:19:54;98094.22;;;-1.74;100.00
47761;BME280;33524;55.434;38.520;2023-12-22T03:22:23;98093.38;;;-1.75;100.00
47761;BME280;33524;55.434;38.520;2023-12-22T03:24:51;98087.28;;;-1.74;100.00
47761;BME280;33524;55.434;38.520;2023-12-22T03:27:19;98089.50;;;-1.68;100.00
47761;BME280;33524;55.434;38.520;2023-12-22T03:29:48;98086.13;;;-1.54;100.00
47761;BME280;33524;55.434;38.520;2023-12-22T03:32:16;98080.69;;;-1.49;100.00
47761;BME280;33524;55.434;38.520;2023-12-22T03:34:44;98090.09;;;-1.48;100.00
47761;BME280;33524;55.434;38.520;2023-12-22T03:37:12;98088.16;;;-1.45;100.00
47761;BME280;33524;55.434;38.520;2023-12-22T03:39:40;98076.53;;;-1.52;100.00
47761;BME280;33524;55.434;38.520;2023-12-22T03:42:08;98071.31;;;-1.50;100.00
47761;BME280;33524;55.434;38.520;2023-12-22T03:44:36;98084.72;;;-1.45;100.00
47761;BME280;33524;55.434;38.520;2023-12-22T03:47:07;98084.72;;;-1.45;100.00
47761;BME280;33524;55.434;38.520;2023-12-22T03:49:35;98074.34;;;-1.58;100.00
47761;BME280;33524;55.434;38.520;2023-12-22T03:52:04;98050.22;;;-1.71;100.00
47761;BME280;33524;55.434;38.520;2023-12-22T03:54:32;98066.88;;;-1.63;100.00
47761;BME280;33524;55.434;38.520;2023-12-22T03:57:00;98077.56;;;-1.69;100.00
47761;BME280;33524;55.434;38.520;2023-12-22T03:59:28;98072.84;;;-1.62;100.00
47761;BME280;33524;55.434;38.520;2023-12-22T04:01:56;98079.69;;;-1.61;100.00
47761;BME280;33524;55.434;38.520;2023-12-22T04:04:26;98076.25;;;-1.47;100.00
47761;BME280;33524;55.434;38.520;2023-12-22T04:06:55;98059.59;;;-1.56;100.00
47761;BME280;33524;55.434;38.520;2023-12-22T04:09:24;98062.63;;;-1.49;100.00
47761;BME280;33524;55.434;38.520;2023-12-22T04:11:52;98053.53;;;-1.40;100.00
47761;BME280;33524;55.434;38.520;2023-12-22T04:14:20;98065.41;;;-1.38;100.00
47761;BME280;33524;55.434;38.520;2023-12-22T04:16:51;98052.97;;;-1.46;100.00
47761;BME280;33524;55.434;38.520;2023-12-22T04:19:21;98059.44;;;-1.38;100.00
47761;BME280;33524;55.434;38.520;2023-12-22T04:21:49;98069.91;;;-1.42;100.00
47761;BME280;33524;55.434;38.520;2023-12-22T04:24:17;98066.06;;;-1.34;100.00
47761;BME280;33524;55.434;38.520;2023-12-22T04:26:46;98051.19;;;-1.31;100.00
47761;BME280;33524;55.434;38.520;2023-12-22T04:29:14;98044.47;;;-1.19;100.00
47761;BME280;33524;55.434;38.520;2023-12-22T04:31:45;98051.25;;;-1.18;100.00
47761;BME280;33524;55.434;38.520;2023-12-22T04:34:13;98041.16;;;-1.21;100.00
47761;BME280;33524;55.434;38.520;2023-12-22T04:36:43;98044.47;;;-1.19;100.00
47761;BME280;33524;55.434;38.520;2023-12-22T04:39:11;98038.38;;;-1.18;100.00
47761;BME280;33524;55.434;38.520;2023-12-22T04:41:40;98037.47;;;-1.17;100.00
47761;BME280;33524;55.434;38.520;2023-12-22T04:44:08;98028.78;;;-1.16;100.00
47761;BME280;33524;55.434;38.520;2023-12-22T04:46:36;98046.97;;;-1.17;100.00
47761;BME280;33524;55.434;38.520;2023-12-22T04:49:04;98053.84;;;-1.18;100.00
47761;BME280;33524;55.434;38.520;2023-12-22T04:51:32;98044.47;;;-1.19;100.00
47761;BME280;33524;55.434;38.520;2023-12-22T04:54:00;98049.63;;;-1.19;100.00
47761;BME280;33524;55.434;38.520;2023-12-22T04:56:36;98044.25;;;-1.16;100.00
47761;BME280;33524;55.434;38.520;2023-12-22T04:59:04;98049.97;;;-1.11;100.00
47761;BME280;33524;55.434;38.520;2023-12-22T05:01:32;98048.22;;;-1.10;100.00
47761;BME280;33524;55.434;38.520;2023-12-22T05:04:00;98052.19;;;-1.05;100.00
47761;BME280;33524;55.434;38.520;2023-12-22T05:06:30;98048.47;;;-1.00;100.00
47761;BME280;33524;55.434;38.520;2023-12-22T05:08:58;98036.50;;;-1.02;100.00
47761;BME280;33524;55.434;38.520;2023-12-22T05:11:26;98031.16;;;-0.98;99.73
47761;BME280;33524;55.434;38.520;2023-12-22T05:13:55;98032.78;;;-0.97;99.79
47761;BME280;33524;55.434;38.520;2023-12-22T05:16:26;98027.63;;;-0.97;99.62
47761;BME280;33524;55.434;38.520;2023-12-22T05:18:55;98021.66;;;-0.98;99.70
47761;BME280;33524;55.434;38.520;2023-12-22T05:21:24;98013.09;;;-0.98;99.47
47761;BME280;33524;55.434;38.520;2023-12-22T05:23:52;98018.87;;;-0.95;99.56
47761;BME280;33524;55.434;38.520;2023-12-22T05:26:23;98017.44;;;-0.99;99.68
47761;BME280;33524;55.434;38.520;2023-12-22T05:28:52;98028.34;;;-0.95;99.60
47761;BME280;33524;55.434;38.520;2023-12-22T05:31:20;98020.44;;;-0.92;99.59
47761;BME280;33524;55.434;38.520;2023-12-22T05:33:48;98019.31;;;-0.88;99.57
47761;BME280;33524;55.434;38.520;2023-12-22T05:36:17;98027.37;;;-0.93;99.89
47761;BME280;33524;55.434;38.520;2023-12-22T05:38:45;98022.28;;;-0.94;100.00
47761;BME280;33524;55.434;38.520;2023-12-22T05:41:15;98036.25;;;-0.84;99.92
47761;BME280;33524;55.434;38.520;2023-12-22T05:43:43;98034.81;;;-0.88;100.00
47761;BME280;33524;55.434;38.520;2023-12-22T05:46:11;98043.19;;;-0.85;100.00
47761;BME280;33524;55.434;38.520;2023-12-22T05:48:39;98039.66;;;-0.84;99.54
47761;BME280;33524;55.434;38.520;2023-12-22T05:51:08;98038.03;;;-0.85;99.72
47761;BME280;33524;55.434;38.520;2023-12-22T05:53:41;98043.72;;;-0.79;99.45
47761;BME280;33524;55.434;38.520;2023-12-22T05:56:22;98039.16;;;-0.89;100.00
47761;BME280;33524;55.434;38.520;2023-12-22T05:58:50;98050.72;;;-0.82;100.00
47761;BME280;33524;55.434;38.520;2023-12-22T06:01:19;98045.25;;;-0.77;99.76
47761;BME280;33524;55.434;38.520;2023-12-22T06:03:47;98037.50;;;-0.77;99.05
47761;BME280;33524;55.434;38.520;2023-12-22T06:06:19;98028.78;;;-0.74;99.06
47761;BME280;33524;55.434;38.520;2023-12-22T06:08:47;98029.50;;;-0.72;98.78
47761;BME280;33524;55.434;38.520;2023-12-22T06:11:16;98041.56;;;-0.73;99.17
47761;BME280;33524;55.434;38.520;2023-12-22T06:13:44;98038.25;;;-0.75;99.86
47761;BME280;33524;55.434;38.520;2023-12-22T06:16:13;98032.69;;;-0.69;98.79
47761;BME280;33524;55.434;38.520;2023-12-22T06:18:42;98032.59;;;-0.67;99.45
47761;BME280;33524;55.434;38.520;2023-12-22T06:21:11;98021.44;;;-0.68;98.64
47761;BME280;33524;55.434;38.520;2023-12-22T06:23:39;98036.44;;;-0.60;98.43
47761;BME280;33524;55.434;38.520;2023-12-22T06:26:08;98038.91;;;-0.58;98.06
47761;BME280;33524;55.434;38.520;2023-12-22T06:28:37;98042.22;;;-0.56;98.34
47761;BME280;33524;55.434;38.520;2023-12-22T06:31:16;98049.97;;;-0.56;98.80
47761;BME280;33524;55.434;38.520;2023-12-22T06:33:49;98043.69;;;-0.52;98.52
47761;BME280;33524;55.434;38.520;2023-12-22T06:36:22;98041.00;;;-0.51;98.75
47761;BME280;33524;55.434;38.520;2023-12-22T06:38:51;98048.84;;;-0.52;97.55
47761;BME280;33524;55.434;38.520;2023-12-22T06:41:23;98046.81;;;-0.47;98.47
47761;BME280;33524;55.434;38.520;2023-12-22T06:43:58;98044.97;;;-0.45;98.92
47761;BME280;33524;55.434;38.520;2023-12-22T06:46:30;98034.81;;;-0.48;97.84
47761;BME280;33524;55.434;38.520;2023-12-22T06:48:59;98056.09;;;-0.45;97.78
47761;BME280;33524;55.434;38.520;2023-12-22T06:51:31;98051.97;;;-0.47;97.55
47761;BME280;33524;55.434;38.520;2023-12-22T06:54:04;98057.03;;;-0.46;97.03
47761;BME280;33524;55.434;38.520;2023-12-22T06:56:39;98023.81;;;-0.65;97.17
47761;BME280;33524;55.434;38.520;2023-12-22T06:59:07;98062.31;;;-0.47;97.03
47761;BME280;33524;55.434;38.520;2023-12-22T07:01:42;98051.75;;;-0.44;97.58
47761;BME280;33524;55.434;38.520;2023-12-22T07:04:25;98050.44;;;-0.37;98.48
47761;BME280;33524;55.434;38.520;2023-12-22T07:06:53;98054.97;;;-0.41;97.28
47761;BME280;33524;55.434;38.520;2023-12-22T07:11:51;98054.50;;;-0.33;97.28
47761;BME280;33524;55.434;38.520;2023-12-22T07:14:21;98054.69;;;-0.36;97.14
47761;BME280;33524;55.434;38.520;2023-12-22T07:16:50;98051.28;;;-0.36;96.90
47761;BME280;33524;55.434;38.520;2023-12-22T07:19:18;98046.00;;;-0.35;96.75
47761;BME280;33524;55.434;38.520;2023-12-22T07:21:47;98053.38;;;-0.29;97.29
47761;BME280;33524;55.434;38.520;2023-12-22T07:24:15;98052.41;;;-0.28;97.64
47761;BME280;33524;55.434;38.520;2023-12-22T07:26:43;98047.97;;;-0.26;97.43
47761;BME280;33524;55.434;38.520;2023-12-22T07:29:12;98042.41;;;-0.19;98.54
47761;BME280;33524;55.434;38.520;2023-12-22T07:31:41;98051.63;;;-0.15;97.98
47761;BME280;33524;55.434;38.520;2023-12-22T07:34:10;98042.72;;;-0.11;97.83
47761;BME280;33524;55.434;38.520;2023-12-22T07:36:38;98039.44;;;-0.13;96.79
47761;BME280;33524;55.434;38.520;2023-12-22T07:39:14;98049.13;;;-0.17;97.03
47761;BME280;33524;55.434;38.520;2023-12-22T07:41:44;98047.06;;;-0.12;97.54
47761;BME280;33524;55.434;38.520;2023-12-22T07:44:12;98040.16;;;-0.11;96.74
47761;BME280;33524;55.434;38.520;2023-12-22T07:46:41;98042.94;;;-0.14;96.47
47761;BME280;33524;55.434;38.520;2023-12-22T07:49:10;98037.97;;;-0.17;96.27
47761;BME280;33524;55.434;38.520;2023-12-22T07:51:43;98044.19;;;-0.07;96.13
47761;BME280;33524;55.434;38.520;2023-12-22T07:54:12;98021.84;;;-0.21;96.00
47761;BME280;33524;55.434;38.520;2023-12-22T07:56:40;98044.19;;;-0.07;96.51
47761;BME280;33524;55.434;38.520;2023-12-22T07:59:08;98030.94;;;-0.03;96.58
47761;BME280;33524;55.434;38.520;2023-12-22T08:01:56;98027.13;;;0.03;96.81
47761;BME280;33524;55.434;38.520;2023-12-22T08:04:26;98027.03;;;0.05;97.13
47761;BME280;33524;55.434;38.520;2023-12-22T08:06:54;98031.06;;;0.09;95.66
47761;BME280;33524;55.434;38.520;2023-12-22T08:09:22;98024.78;;;0.00;95.27
47761;BME280;33524;55.434;38.520;2023-12-22T08:11:51;98030.12;;;-0.03;95.13
47761;BME280;33524;55.434;38.520;2023-12-22T08:14:21;98027.03;;;0.05;95.50
47761;BME280;33524;55.434;38.520;2023-12-22T08:16:49;98026.50;;;0.12;95.13
47761;BME280;33524;55.434;38.520;2023-12-22T08:19:18;98027.44;;;0.11;94.71
47761;BME280;33524;55.434;38.520;2023-12-22T08:21:49;98017.09;;;0.24;95.67
47761;BME280;33524;55.434;38.520;2023-12-22T08:24:23;98011.72;;;0.14;94.83
47761;BME280;33524;55.434;38.520;2023-12-22T08:26:52;98015.16;;;0.15;94.24
47761;BME280;33524;55.434;38.520;2023-12-22T08:29:20;98013.56;;;0.12;94.12
47761;BME280;33524;55.434;38.520;2023-12-22T08:31:48;98015.88;;;0.17;93.80
47761;BME280;33524;55.434;38.520;2023-12-22T08:34:17;98011.31;;;0.20;93.64
47761;BME280;33524;55.434;38.520;2023-12-22T08:36:45;98016.47;;;0.20;93.60
47761;BME280;33524;55.434;38.520;2023-12-22T08:39:13;98007.06;;;0.19;93.42
47761;BME280;33524;55.434;38.520;2023-12-22T08:41:42;98000.44;;;0.28;93.15
47761;BME280;33524;55.434;38.520;2023-12-22T08:44:11;97999.53;;;0.29;93.06
47761;BME280;33524;55.434;38.520;2023-12-22T08:46:42;98001.16;;;0.30;92.94
47761;BME280;33524;55.434;38.520;2023-12-22T08:49:11;97995.19;;;0.30;92.84
47761;BME280;33524;55.434;38.520;2023-12-22T08:51:40;97993.31;;;0.32;92.98
47761;BME280;33524;55.434;38.520;2023-12-22T08:54:09;97990.19;;;0.27;92.89
47761;BME280;33524;55.434;38.520;2023-12-22T08:56:37;97993.94;;;0.23;92.91
47761;BME280;33524;55.434;38.520;2023-12-22T08:59:05;97999.09;;;0.23;93.10
47761;BME280;33524;55.434;38.520;2023-12-22T09:01:36;97990.44;;;0.24;92.82
47761;BME280;33524;55.434;38.520;2023-12-22T09:04:05;97994.47;;;0.28;92.89
47761;BME280;33524;55.434;38.520;2023-12-22T09:06:36;97994.75;;;0.36;92.46
47761;BME280;33524;55.434;38.520;2023-12-22T09:09:05;97988.97;;;0.32;92.47
47761;BME280;33524;55.434;38.520;2023-12-22T09:11:34;97996.00;;;0.30;92.51
47761;BME280;33524;55.434;38.520;2023-12-22T09:14:05;97986.38;;;0.32;92.35
47761;BME280;33524;55.434;38.520;2023-12-22T09:16:37;97985.03;;;0.27;92.58
47761;BME280;33524;55.434;38.520;2023-12-22T09:19:06;97977.69;;;0.33;92.14
47761;BME280;33524;55.434;38.520;2023-12-22T09:21:34;97980.16;;;0.35;92.06
47761;BME280;33524;55.434;38.520;2023-12-22T09:24:03;97986.56;;;0.42;91.57
47761;BME280;33524;55.434;38.520;2023-12-22T09:26:33;97973.53;;;0.44;91.96
47761;BME280;33524;55.434;38.520;2023-12-22T09:29:01;97973.66;;;0.42;92.13
47761;BME280;33524;55.434;38.520;2023-12-22T09:31:29;97977.78;;;0.45;92.08
47761;BME280;33524;55.434;38.520;2023-12-22T09:33:57;97991.66;;;0.44;91.92
47761;BME280;33524;55.434;38.520;2023-12-22T09:36:26;97979.72;;;0.41;92.02
47761;BME280;33524;55.434;38.520;2023-12-22T09:39:11;97984.31;;;0.37;92.23
47761;BME280;33524;55.434;38.520;2023-12-22T09:41:48;97985.22;;;0.36;92.42
47761;BME280;33524;55.434;38.520;2023-12-22T09:44:19;97971.19;;;0.28;92.53
47761;BME280;33524;55.434;38.520;2023-12-22T09:46:50;97980.56;;;0.29;92.48
47761;BME280;33524;55.434;38.520;2023-12-22T09:49:20;97988.13;;;0.32;92.49
47761;BME280;33524;55.434;38.520;2023-12-22T09:51:50;97986.19;;;0.35;92.18
47761;BME280;33524;55.434;38.520;2023-12-22T09:54:20;97966.94;;;0.27;92.53
47761;BME280;33524;55.434;38.520;2023-12-22T09:56:50;97971.09;;;0.29;92.35
47761;BME280;33524;55.434;38.520;2023-12-22T09:59:19;97964.44;;;0.38;91.94
47761;BME280;33524;55.434;38.520;2023-12-22T10:01:55;97967.41;;;0.45;92.23
47761;BME280;33524;55.434;38.520;2023-12-22T10:04:24;97957.31;;;0.42;91.90
47761;BME280;33524;55.434;38.520;2023-12-22T10:06:58;97957.09;;;0.45;91.72
47761;BME280;33524;55.434;38.520;2023-12-22T10:09:31;97953.56;;;0.46;91.83
47761;BME280;33524;55.434;38.520;2023-12-22T10:12:01;97950.84;;;0.47;91.55
47761;BME280;33524;55.434;38.520;2023-12-22T10:14:32;97947.12;;;0.51;91.86
47761;BME280;33524;55.434;38.520;2023-12-22T10:17:07;97937.00;;;0.48;91.66
47761;BME280;33524;55.434;38.520;2023-12-22T10:19:36;97940.31;;;0.50;91.45
47761;BME280;33524;55.434;38.520;2023-12-22T10:22:05;97940.09;;;0.53;90.79
47761;BME280;33524;55.434;38.520;2023-12-22T10:24:40;97934.28;;;0.63;90.40
47761;BME280;33524;55.434;38.520;2023-12-22T10:27:12;97928.09;;;0.76;90.11
47761;BME280;33524;55.434;38.520;2023-12-22T10:29:43;97921.22;;;0.88;92.06
47761;BME280;33524;55.434;38.520;2023-12-22T10:32:12;97928.59;;;0.82;90.75
47761;BME280;33524;55.434;38.520;2023-12-22T10:34:40;97924.47;;;0.79;90.45
47761;BME280;33524;55.434;38.520;2023-12-22T10:37:08;97907.72;;;0.72;90.25
47761;BME280;33524;55.434;38.520;2023-12-22T10:39:38;97923.25;;;0.72;89.57
47761;BME280;33524;55.434;38.520;2023-12-22T10:42:06;97925.03;;;0.71;89.98
47761;BME280;33524;55.434;38.520;2023-12-22T10:44:35;97930.75;;;0.64;90.85
47761;BME280;33524;55.434;38.520;2023-12-22T10:47:03;97920.34;;;0.52;91.09
47761;BME280;33524;55.434;38.520;2023-12-22T10:49:31;97919.41;;;0.53;91.46
47761;BME280;33524;55.434;38.520;2023-12-22T10:52:00;97894.44;;;0.28;91.44
47761;BME280;33524;55.434;38.520;2023-12-22T10:54:29;97923.38;;;0.46;91.53
47761;BME280;33524;55.434;38.520;2023-12-22T10:56:59;97919.34;;;0.42;91.91
47761;BME280;33524;55.434;38.520;2023-12-22T10:59:38;97929.16;;;0.37;92.10
47761;BME280;33524;55.434;38.520;2023-12-22T11:02:20;97920.09;;;0.31;91.80
47761;BME280;33524;55.434;38.520;2023-12-22T11:05:04;97928.78;;;0.30;92.43
47761;BME280;33524;55.434;38.520;2023-12-22T11:07:34;97929.81;;;0.28;92.33
47761;BME280;33524;55.434;38.520;2023-12-22T11:10:06;97919.91;;;0.22;92.36
47761;BME280;33524;55.434;38.520;2023-12-22T11:12:35;97921.78;;;0.19;91.91
47761;BME280;33524;55.434;38.520;2023-12-22T11:15:05;97921.25;;;0.27;92.53
47761;BME280;33524;55.434;38.520;2023-12-22T11:17:37;97918.03;;;0.24;92.75
47761;BME280;33524;55.434;38.520;2023-12-22T11:20:09;97924.84;;;0.25;92.62
47761;BME280;33524;55.434;38.520;2023-12-22T11:22:38;97924.84;;;0.25;92.60
47761;BME280;33524;55.434;38.520;2023-12-22T11:25:10;97923.41;;;0.20;92.83
47761;BME280;33524;55.434;38.520;2023-12-22T11:27:44;97924.56;;;0.29;92.56
47761;BME280;33524;55.434;38.520;2023-12-22T11:30:16;97922.41;;;0.23;92.91
47761;BME280;33524;55.434;38.520;2023-12-22T11:32:46;97925.56;;;0.27;93.02
47761;BME280;33524;55.434;38.520;2023-12-22T11:35:17;97915.34;;;0.25;92.54
47761;BME280;33524;55.434;38.520;2023-12-22T11:37:46;97914.94;;;0.18;92.67
47761;BME280;33524;55.434;38.520;2023-12-22T11:40:16;97905.03;;;0.12;92.66
47761;BME280;33524;55.434;38.520;2023-12-22T11:42:49;97915.16;;;0.15;93.48
47761;BME280;33524;55.434;38.520;2023-12-22T11:45:19;97924.69;;;0.15;93.07
47761;BME280;33524;55.434;38.520;2023-12-22T11:47:48;97920.09;;;0.18;93.28
47761;BME280;33524;55.434;38.520;2023-12-22T11:50:29;97914.94;;;0.18;93.23
47761;BME280;33524;55.434;38.520;2023-12-22T11:53:21;97913.50;;;0.14;93.05
47761;BME280;33524;55.434;38.520;2023-12-22T11:56:06;97901.28;;;0.16;93.33
47761;BME280;33524;55.434;38.520;2023-12-22T11:58:42;97897.87;;;0.16;93.38
47761;BME280;33524;55.434;38.520;2023-12-22T12:01:12;97903.16;;;0.14;93.41
47761;BME280;33524;55.434;38.520;2023-12-22T12:03:56;97898.22;;;0.11;94.04
47761;BME280;33524;55.434;38.520;2023-12-22T12:09:06;97902.00;;;0.18;93.52
47761;BME280;33524;55.434;38.520;2023-12-22T12:14:37;97886.34;;;0.09;94.01
47761;BME280;33524;55.434;38.520;2023-12-22T12:17:09;97875.69;;;0.13;93.98
47761;BME280;33524;55.434;38.520;2023-12-22T12:19:41;97884.97;;;0.16;94.07
47761;BME280;33524;55.434;38.520;2023-12-22T12:22:13;97885.06;;;0.14;94.32
47761;BME280;33524;55.434;38.520;2023-12-22T12:24:42;97881.03;;;0.10;93.96
47761;BME280;33524;55.434;38.520;2023-12-22T12:27:10;97883.44;;;0.13;93.99
47761;BME280;33524;55.434;38.520;2023-12-22T12:29:39;97879.31;;;0.11;93.91
47761;BME280;33524;55.434;38.520;2023-12-22T12:32:15;97870.31;;;0.04;94.18
47761;BME280;33524;55.434;38.520;2023-12-22T12:34:43;97871.59;;;-0.02;93.97
47761;BME280;33524;55.434;38.520;2023-12-22T12:37:15;97888.50;;;0.02;94.31
47761;BME280;33524;55.434;38.520;2023-12-22T12:39:46;97874.28;;;-0.04;94.74
47761;BME280;33524;55.434;38.520;2023-12-22T12:42:16;97860.22;;;0.01;94.66
47761;BME280;33524;55.434;38.520;2023-12-22T12:44:45;97862.66;;;0.02;94.49
47761;BME280;33524;55.434;38.520;2023-12-22T12:47:16;97864.34;;;0.03;94.20
47761;BME280;33524;55.434;38.520;2023-12-22T12:49:45;97858.69;;;-0.02;94.36
47761;BME280;33524;55.434;38.520;2023-12-22T12:52:13;97850.91;;;-0.02;94.41
47761;BME280;33524;55.434;38.520;2023-12-22T12:54:42;97849.34;;;-0.05;94.54
47761;BME280;33524;55.434;38.520;2023-12-22T12:57:17;97853.69;;;-0.05;94.47
47761;BME280;33524;55.434;38.520;2023-12-22T12:59:47;97850.41;;;-0.07;94.38
47761;BME280;33524;55.434;38.520;2023-12-22T13:02:19;97856.28;;;-0.05;94.81
47761;BME280;33524;55.434;38.520;2023-12-22T13:04:52;97852.56;;;-0.01;94.72
47761;BME280;33524;55.434;38.520;2023-12-22T13:07:26;97844.09;;;-0.03;94.45
47761;BME280;33524;55.434;38.520;2023-12-22T13:09:55;97842.44;;;-0.04;94.63
47761;BME280;33524;55.434;38.520;2023-12-22T13:12:24;97833.12;;;-0.07;94.32
47761;BME280;33524;55.434;38.520;2023-12-22T13:14:53;97841.72;;;-0.06;94.34